createdAt,value
2018-08-25T00:00:02.766Z,1.00
2018-08-25T00:02:29.891Z,1.50
2018-08-25T00:04:57.027Z,1.23
2018-08-25T00:07:25.180Z,1.10
2018-08-25T00:09:52.457Z,1.20
2018-08-25T00:12:19.779Z,1.00
2018-08-25T00:14:47.019Z,1.00
2018-08-25T00:17:14.222Z,0.80
2018-08-25T00:19:41.338Z,0.97
2018-08-25T00:22:08.482Z,0.90
2018-08-25T00:24:35.623Z,0.90
2018-08-25T00:27:02.741Z,1.50
2018-08-25T00:29:29.863Z,1.20
2018-08-25T00:31:56.962Z,1.10
2018-08-25T00:34:24.141Z,1.00
2018-08-25T00:36:51.333Z,1.13
2018-08-25T00:39:18.529Z,1.33
2018-08-25T00:41:45.967Z,1.03
2018-08-25T00:44:13.138Z,1.40
2018-08-25T00:46:40.347Z,1.20
2018-08-25T00:49:07.528Z,1.50
2018-08-25T00:51:34.793Z,1.27
2018-08-25T00:54:01.920Z,0.90
2018-08-25T00:56:29.047Z,1.20
2018-08-25T00:58:56.287Z,1.43
2018-08-25T01:01:23.493Z,1.23
2018-08-25T01:03:50.711Z,1.40
2018-08-25T01:06:17.937Z,1.17
2018-08-25T01:08:45.093Z,1.27
2018-08-25T01:11:12.317Z,1.43
2018-08-25T01:13:39.486Z,1.03
2018-08-25T01:16:06.621Z,1.33
2018-08-25T01:18:33.754Z,1.00
2018-08-25T01:21:00.922Z,1.10
2018-08-25T01:23:28.059Z,1.33
2018-08-25T01:25:55.166Z,3.00
2018-08-25T01:28:22.381Z,1.63
2018-08-25T01:30:49.791Z,1.30
2018-08-25T01:33:17.047Z,1.37
2018-08-25T01:35:44.173Z,1.83
2018-08-25T01:38:11.342Z,1.10
2018-08-25T01:40:38.484Z,1.40
2018-08-25T01:43:05.694Z,1.50
2018-08-25T01:45:32.804Z,0.90
2018-08-25T01:47:59.906Z,1.20
2018-08-25T01:50:27.032Z,1.13
2018-08-25T01:52:54.254Z,1.37
2018-08-25T01:55:21.419Z,1.20
2018-08-25T01:57:48.837Z,1.57
2018-08-25T02:00:16.003Z,1.13
2018-08-25T02:02:43.128Z,1.40
2018-08-25T02:05:10.202Z,1.33
2018-08-25T02:07:37.310Z,1.40
2018-08-25T02:10:04.818Z,1.20
2018-08-25T02:12:32.007Z,1.27
2018-08-25T02:14:59.385Z,1.30
2018-08-25T02:17:26.644Z,1.30
2018-08-25T02:19:53.765Z,1.23
2018-08-25T02:22:20.915Z,0.93
2018-08-25T02:24:48.077Z,1.00
2018-08-25T02:27:15.427Z,0.90
2018-08-25T02:29:42.516Z,1.10
2018-08-25T02:32:09.627Z,1.13
2018-08-25T02:34:36.824Z,0.93
2018-08-25T02:37:04.031Z,1.10
2018-08-25T02:39:31.158Z,1.20
2018-08-25T02:41:58.275Z,1.07
2018-08-25T02:44:25.370Z,1.17
2018-08-25T02:46:52.558Z,1.07
2018-08-25T02:49:19.703Z,1.10
2018-08-25T02:51:46.847Z,1.20
2018-08-25T02:54:13.999Z,1.43
2018-08-25T02:56:41.115Z,0.90
2018-08-25T02:59:08.216Z,1.20
2018-08-25T03:01:35.333Z,1.13
2018-08-25T03:04:02.443Z,1.27
2018-08-25T03:06:29.552Z,1.07
2018-08-25T03:08:56.653Z,1.47
2018-08-25T03:11:23.786Z,1.73
2018-08-25T03:13:51.166Z,1.17
2018-08-25T03:16:18.288Z,1.57
2018-08-25T03:18:45.431Z,1.50
2018-08-25T03:21:12.527Z,1.10
2018-08-25T03:23:39.643Z,1.70
2018-08-25T03:26:06.791Z,1.10
2018-08-25T03:28:33.912Z,1.33
2018-08-25T03:31:01.045Z,1.00
2018-08-25T03:33:28.244Z,1.20
2018-08-25T03:35:55.566Z,1.57
2018-08-25T03:38:22.682Z,1.20
2018-08-25T03:40:49.940Z,1.40
2018-08-25T03:43:17.133Z,1.50
2018-08-25T03:45:44.292Z,1.93
2018-08-25T03:48:11.459Z,1.43
2018-08-25T03:50:38.597Z,1.60
2018-08-25T03:53:05.927Z,1.27
2018-08-25T03:55:33.324Z,1.50
2018-08-25T03:58:00.390Z,1.67
2018-08-25T04:00:27.503Z,1.70
2018-08-25T04:02:54.672Z,1.70
2018-08-25T04:05:21.892Z,1.37
2018-08-25T04:07:49.087Z,1.60
2018-08-25T04:10:16.357Z,1.80
2018-08-25T04:12:43.503Z,1.50
2018-08-25T04:15:10.671Z,1.33
2018-08-25T04:17:37.769Z,1.50
2018-08-25T04:20:04.966Z,1.80
2018-08-25T04:22:32.093Z,1.50
2018-08-25T04:24:59.286Z,1.40
2018-08-25T04:27:26.427Z,1.30
2018-08-25T04:29:53.535Z,1.40
2018-08-25T04:32:20.959Z,1.70
2018-08-25T04:34:48.126Z,1.70
2018-08-25T04:37:15.300Z,1.50
2018-08-25T04:39:42.455Z,1.30
2018-08-25T04:42:09.589Z,1.30
2018-08-25T04:44:36.694Z,1.77
2018-08-25T04:47:03.885Z,1.50
2018-08-25T04:49:31.000Z,1.40
2018-08-25T04:51:58.189Z,1.57
2018-08-25T04:54:25.356Z,1.80
2018-08-25T04:56:52.454Z,1.70
2018-08-25T04:59:19.632Z,1.90
2018-08-25T05:01:47.040Z,1.53
2018-08-25T05:04:14.130Z,2.10
2018-08-25T05:06:41.264Z,1.57
2018-08-25T05:09:09.523Z,1.63
2018-08-25T05:11:36.610Z,1.47
2018-08-25T05:14:03.786Z,1.70
2018-08-25T05:16:30.967Z,1.70
2018-08-25T05:18:58.134Z,1.70
2018-08-25T05:21:25.255Z,1.90
2018-08-25T05:23:52.418Z,1.70
2018-08-25T05:26:19.630Z,1.43
2018-08-25T05:28:46.876Z,1.83
2018-08-25T05:31:14.002Z,1.90
2018-08-25T05:33:41.129Z,1.57
2018-08-25T05:36:08.270Z,1.87
2018-08-25T05:38:35.391Z,2.00
2018-08-25T05:41:02.485Z,1.73
2018-08-25T05:43:29.578Z,1.87
2018-08-25T05:45:56.690Z,1.87
2018-08-25T05:48:23.790Z,1.80
2018-08-25T05:50:51.015Z,2.30
2018-08-25T05:53:18.199Z,1.97
2018-08-25T05:55:45.314Z,1.90
2018-08-25T05:58:12.791Z,1.43
2018-08-25T06:00:40.037Z,2.23
2018-08-25T06:03:07.225Z,1.97
2018-08-25T06:05:34.347Z,1.90
2018-08-25T06:08:01.481Z,1.83
2018-08-25T06:10:28.607Z,1.97
2018-08-25T06:12:55.754Z,1.73
2018-08-25T06:15:22.986Z,1.80
2018-08-25T06:17:50.379Z,2.17
2018-08-25T06:20:17.438Z,2.00
2018-08-25T06:22:44.558Z,2.23
2018-08-25T06:25:11.710Z,1.80
2018-08-25T06:27:38.846Z,2.00
2018-08-25T06:30:06.187Z,2.13
2018-08-25T06:32:33.317Z,2.20
2018-08-25T06:35:00.472Z,2.33
2018-08-25T06:37:27.566Z,2.10
2018-08-25T06:39:54.697Z,2.30
2018-08-25T06:42:21.900Z,2.17
2018-08-25T06:44:49.228Z,1.97
2018-08-25T06:47:16.518Z,2.10
2018-08-25T06:49:43.878Z,2.00
2018-08-25T06:52:11.015Z,2.03
2018-08-25T06:54:38.115Z,2.17
2018-08-25T06:57:05.263Z,2.30
2018-08-25T06:59:32.459Z,2.47
2018-08-25T07:01:59.536Z,2.33
2018-08-25T07:04:26.692Z,2.30
2018-08-25T07:06:53.803Z,2.07
2018-08-25T07:09:20.972Z,2.20
2018-08-25T07:11:48.128Z,2.40
2018-08-25T07:14:22.054Z,2.40
2018-08-25T07:16:49.287Z,2.20
2018-08-25T07:19:16.451Z,2.63
2018-08-25T07:21:43.591Z,2.73
2018-08-25T07:24:10.762Z,1.93
2018-08-25T07:26:37.926Z,2.27
2018-08-25T07:29:05.530Z,2.30
2018-08-25T07:31:32.702Z,1.93
2018-08-25T07:33:59.859Z,2.50
2018-08-25T07:36:26.981Z,2.47
2018-08-25T07:38:54.118Z,2.40
2018-08-25T07:41:21.341Z,2.30
2018-08-25T07:43:48.515Z,2.23
2018-08-25T07:46:15.730Z,2.10
2018-08-25T07:48:42.982Z,2.20
2018-08-25T07:51:10.038Z,2.33
2018-08-25T07:53:37.165Z,2.10
2018-08-25T07:56:04.684Z,1.83
2018-08-25T07:58:31.875Z,1.77
2018-08-25T08:00:59.164Z,2.17
2018-08-25T08:03:26.302Z,2.27
2018-08-25T08:05:53.407Z,2.30
2018-08-25T08:08:20.594Z,2.23
2018-08-25T08:10:47.776Z,1.90
2018-08-25T08:13:14.898Z,2.17
2018-08-25T08:15:42.059Z,2.20
2018-08-25T08:18:09.170Z,2.20
2018-08-25T08:20:36.266Z,1.67
2018-08-25T08:23:03.410Z,1.80
2018-08-25T08:25:30.886Z,2.10
2018-08-25T08:27:58.067Z,1.90
2018-08-25T08:30:25.239Z,2.30
2018-08-25T08:32:52.464Z,2.30
2018-08-25T08:35:19.645Z,2.33
2018-08-25T08:37:46.928Z,1.83
2018-08-25T08:40:14.078Z,1.40
2018-08-25T08:42:41.190Z,1.93
2018-08-25T08:45:08.322Z,1.77
2018-08-25T08:47:35.799Z,2.00
2018-08-25T08:50:03.398Z,2.10
2018-08-25T08:52:30.434Z,1.97
2018-08-25T08:54:57.583Z,1.53
2018-08-25T08:57:24.768Z,1.80
2018-08-25T08:59:51.903Z,1.80
2018-08-25T09:02:19.117Z,1.40
2018-08-25T09:04:46.446Z,1.43
2018-08-25T09:07:13.587Z,1.30
2018-08-25T09:09:40.702Z,1.30
2018-08-25T09:12:07.880Z,1.10
2018-08-25T09:14:35.058Z,0.80
2018-08-25T09:17:02.204Z,0.80
2018-08-25T09:19:29.410Z,0.93
2018-08-25T09:21:56.554Z,0.80
2018-08-25T09:24:23.683Z,1.10
2018-08-25T09:26:50.890Z,0.53
2018-08-25T09:29:18.133Z,1.00
2018-08-25T09:31:45.309Z,0.63
2018-08-25T09:34:12.454Z,0.60
2018-08-25T09:36:39.744Z,0.60
2018-08-25T09:39:08.553Z,0.60
2018-08-25T09:41:35.709Z,0.70
2018-08-25T09:44:02.892Z,0.70
2018-08-25T09:46:30.046Z,0.40
2018-08-25T09:48:57.160Z,0.60
2018-08-25T09:51:24.283Z,0.90
2018-08-25T09:53:51.408Z,0.73
2018-08-25T09:56:18.606Z,0.80
2018-08-25T09:58:45.774Z,0.77
2018-08-25T10:01:18.750Z,0.57
2018-08-25T10:03:45.941Z,0.53
2018-08-25T10:06:13.073Z,0.90
2018-08-25T10:08:40.207Z,0.73
2018-08-25T10:11:07.431Z,0.70
2018-08-25T10:13:34.600Z,0.77
2018-08-25T10:16:01.714Z,0.70
2018-08-25T10:18:28.866Z,1.13
2018-08-25T10:20:55.998Z,0.50
2018-08-25T10:23:23.199Z,0.60
2018-08-25T10:25:50.444Z,0.50
2018-08-25T10:28:17.798Z,0.63
2018-08-25T10:30:44.936Z,0.60
2018-08-25T10:33:12.138Z,0.70
2018-08-25T10:35:39.288Z,0.60
2018-08-25T10:38:06.438Z,0.50
2018-08-25T10:40:33.555Z,0.70
2018-08-25T10:43:00.699Z,0.93
2018-08-25T10:45:27.831Z,0.73
2018-08-25T10:47:55.057Z,0.50
2018-08-25T10:50:22.266Z,0.53
2018-08-25T10:52:49.410Z,0.70
2018-08-25T10:55:16.710Z,0.70
2018-08-25T10:57:43.872Z,0.50
2018-08-25T11:00:11.086Z,0.60
2018-08-25T11:02:38.140Z,0.97
2018-08-25T11:05:05.324Z,0.90
2018-08-25T11:07:32.474Z,0.57
2018-08-25T11:09:59.650Z,0.60
2018-08-25T11:12:26.778Z,0.60
2018-08-25T11:14:53.931Z,0.47
2018-08-25T11:17:21.240Z,0.70
2018-08-25T11:19:48.522Z,0.67
2018-08-25T11:22:15.820Z,0.70
2018-08-25T11:24:42.943Z,0.60
2018-08-25T11:27:10.126Z,0.60
2018-08-25T11:29:37.273Z,0.63
2018-08-25T11:32:04.675Z,0.73
2018-08-25T11:34:31.896Z,0.57
2018-08-25T11:36:59.110Z,0.80
2018-08-25T11:39:26.327Z,0.80
2018-08-25T11:41:53.555Z,0.73
2018-08-25T11:44:20.774Z,0.97
2018-08-25T11:46:48.106Z,0.73
2018-08-25T11:49:15.366Z,0.60
2018-08-25T11:51:42.559Z,0.80
2018-08-25T11:54:09.842Z,0.70
2018-08-25T11:56:37.109Z,0.70
2018-08-25T11:59:04.386Z,0.80
2018-08-25T12:01:32.211Z,0.73
2018-08-25T12:03:59.471Z,0.80
2018-08-25T12:06:26.695Z,0.73
2018-08-25T12:08:53.956Z,0.87
2018-08-25T12:11:21.301Z,1.00
2018-08-25T12:13:48.666Z,0.80
2018-08-25T12:16:15.993Z,0.70
2018-08-25T12:18:43.135Z,0.70
2018-08-25T12:21:10.294Z,0.87
2018-08-25T12:23:37.635Z,0.80
2018-08-25T12:26:05.034Z,0.60
2018-08-25T12:28:32.251Z,0.60
2018-08-25T12:30:59.459Z,0.73
2018-08-25T12:33:26.696Z,0.60
2018-08-25T12:35:53.887Z,0.77
2018-08-25T12:38:21.208Z,0.80
2018-08-25T12:40:48.577Z,0.87
2018-08-25T12:43:15.871Z,0.70
2018-08-25T12:45:43.075Z,0.83
2018-08-25T12:48:10.345Z,0.87
2018-08-25T12:50:37.541Z,0.67
2018-08-25T12:53:04.760Z,0.90
2018-08-25T12:55:31.964Z,0.80
2018-08-25T12:57:59.263Z,0.90
2018-08-25T13:00:26.496Z,0.70
2018-08-25T13:02:53.808Z,1.00
2018-08-25T13:05:21.035Z,0.80
2018-08-25T13:07:48.828Z,0.90
2018-08-25T13:10:16.079Z,0.60
2018-08-25T13:12:43.295Z,0.77
2018-08-25T13:15:10.488Z,0.97
2018-08-25T13:17:37.690Z,0.70
2018-08-25T13:20:05.002Z,0.90
2018-08-25T13:22:32.207Z,0.80
2018-08-25T13:24:59.483Z,0.67
2018-08-25T13:27:26.658Z,0.70
2018-08-25T13:29:53.775Z,0.80
2018-08-25T13:32:21.032Z,0.60
2018-08-25T13:34:48.235Z,0.60
2018-08-25T13:37:15.377Z,0.60
2018-08-25T13:39:42.485Z,0.83
2018-08-25T13:42:09.650Z,0.57
2018-08-25T13:44:36.772Z,0.60
2018-08-25T13:47:03.887Z,1.00
2018-08-25T13:49:31.031Z,1.27
2018-08-25T13:51:58.136Z,0.80
2018-08-25T13:54:25.266Z,0.80
2018-08-25T13:56:52.456Z,0.70
2018-08-25T13:59:19.714Z,0.70
2018-08-25T14:01:46.868Z,0.63
2018-08-25T14:04:14.049Z,0.70
2018-08-25T14:06:41.177Z,0.90
2018-08-25T14:09:08.720Z,0.90
2018-08-25T14:11:35.913Z,1.10
2018-08-25T14:14:03.096Z,0.70
2018-08-25T14:16:30.218Z,1.00
2018-08-25T14:18:57.347Z,0.80
2018-08-25T14:21:24.595Z,1.00
2018-08-25T14:23:51.804Z,0.90
2018-08-25T14:26:18.949Z,1.10
2018-08-25T14:28:46.121Z,0.90
2018-08-25T14:31:13.223Z,1.10
2018-08-25T14:33:40.378Z,0.80
2018-08-25T14:36:07.527Z,0.80
2018-08-25T14:38:34.671Z,1.10
2018-08-25T14:41:01.795Z,0.90
2018-08-25T14:43:28.931Z,0.83
2018-08-25T14:45:56.287Z,0.60
2018-08-25T14:48:23.546Z,0.80
2018-08-25T14:50:50.707Z,0.80
2018-08-25T14:53:17.930Z,0.83
2018-08-25T14:55:45.094Z,0.50
2018-08-25T14:58:13.109Z,0.80
2018-08-25T15:00:40.258Z,1.00
2018-08-25T15:03:07.792Z,1.00
2018-08-25T15:05:35.111Z,1.20
2018-08-25T15:08:02.338Z,0.87
2018-08-25T15:10:29.439Z,1.10
2018-08-25T15:12:57.102Z,0.73
2018-08-25T15:15:24.311Z,0.93
2018-08-25T15:17:51.543Z,1.00
2018-08-25T15:20:18.752Z,1.03
2018-08-25T15:22:46.006Z,1.00
2018-08-25T15:25:13.338Z,1.20
2018-08-25T15:27:40.534Z,1.00
2018-08-25T15:30:07.680Z,0.90
2018-08-25T15:32:34.779Z,1.30
2018-08-25T15:35:01.897Z,1.10
2018-08-25T15:37:29.011Z,0.90
2018-08-25T15:39:56.149Z,0.80
2018-08-25T15:42:23.347Z,0.90
2018-08-25T15:44:50.523Z,1.47
2018-08-25T15:47:17.699Z,1.23
2018-08-25T15:49:44.823Z,1.20
2018-08-25T15:52:12.040Z,1.13
2018-08-25T15:54:39.230Z,1.00
2018-08-25T15:57:06.679Z,0.90
2018-08-25T15:59:34.074Z,1.10
2018-08-25T16:02:01.202Z,1.00
2018-08-25T16:04:28.375Z,1.33
2018-08-25T16:06:55.623Z,1.00
2018-08-25T16:09:22.819Z,0.97
2018-08-25T16:11:50.218Z,1.03
2018-08-25T16:14:17.342Z,1.40
2018-08-25T16:16:44.502Z,1.90
2018-08-25T16:19:11.647Z,1.20
2018-08-25T16:21:38.779Z,1.00
2018-08-25T16:24:05.945Z,1.10
2018-08-25T16:26:33.055Z,1.00
2018-08-25T16:29:00.228Z,1.47
2018-08-25T16:31:27.380Z,0.83
2018-08-25T16:33:54.494Z,0.93
2018-08-25T16:36:21.651Z,1.00
2018-08-25T16:38:48.960Z,0.90
2018-08-25T16:41:16.148Z,1.20
2018-08-25T16:43:43.271Z,1.10
2018-08-25T16:46:10.409Z,1.40
2018-08-25T16:48:37.531Z,1.00
2018-08-25T16:51:04.946Z,1.30
2018-08-25T16:53:32.068Z,1.07
2018-08-25T16:55:59.267Z,1.17
2018-08-25T16:58:26.378Z,0.87
2018-08-25T17:00:53.515Z,0.90
2018-08-25T17:03:20.658Z,1.23
2018-08-25T17:05:47.806Z,1.33
2018-08-25T17:08:14.907Z,2.17
2018-08-25T17:10:42.217Z,1.40
2018-08-25T17:13:09.359Z,1.20
2018-08-25T17:15:36.545Z,1.53
2018-08-25T17:18:03.846Z,1.17
2018-08-25T17:20:31.016Z,0.97
2018-08-25T17:22:58.133Z,1.10
2018-08-25T17:25:25.251Z,1.13
2018-08-25T17:27:52.437Z,1.23
2018-08-25T17:30:19.590Z,1.50
2018-08-25T17:32:46.762Z,1.17
2018-08-25T17:35:13.871Z,1.13
2018-08-25T17:37:41.014Z,1.43
2018-08-25T17:40:08.237Z,0.80
2018-08-25T17:42:35.516Z,1.00
2018-08-25T17:45:02.771Z,1.13
2018-08-25T17:47:29.980Z,0.70
2018-08-25T17:49:57.535Z,0.87
2018-08-25T17:52:24.895Z,0.80
2018-08-25T17:54:52.114Z,0.77
2018-08-25T17:57:19.534Z,0.90
2018-08-25T17:59:46.811Z,0.70
2018-08-25T18:02:14.045Z,0.70
2018-08-25T18:04:41.298Z,0.67
2018-08-25T18:07:08.539Z,0.93
2018-08-25T18:09:35.715Z,0.87
2018-08-25T18:12:02.983Z,0.70
2018-08-25T18:14:30.223Z,0.60
2018-08-25T18:16:57.476Z,1.00
2018-08-25T18:19:24.714Z,0.67
2018-08-25T18:21:51.870Z,1.10
2018-08-25T18:24:19.050Z,0.77
2018-08-25T18:26:46.239Z,0.70
2018-08-25T18:29:13.371Z,0.90
2018-08-25T18:31:40.503Z,0.67
2018-08-25T18:34:07.693Z,0.80
2018-08-25T18:36:34.854Z,0.90
2018-08-25T18:39:02.081Z,0.53
2018-08-25T18:41:29.227Z,0.80
2018-08-25T18:43:56.631Z,0.70
2018-08-25T18:46:23.788Z,0.60
2018-08-25T18:48:50.911Z,0.93
2018-08-25T18:51:18.053Z,0.97
2018-08-25T18:53:45.172Z,0.70
2018-08-25T18:56:12.342Z,0.73
2018-08-25T18:58:39.495Z,0.93
2018-08-25T19:01:06.655Z,0.77
2018-08-25T19:03:33.833Z,1.00
2018-08-25T19:06:00.998Z,0.73
2018-08-25T19:08:28.145Z,0.80
2018-08-25T19:10:55.267Z,0.90
2018-08-25T19:13:22.518Z,0.80
2018-08-25T19:15:49.699Z,0.70
2018-08-25T19:18:16.880Z,0.77
2018-08-25T19:20:44.048Z,0.80
2018-08-25T19:23:11.376Z,0.70
2018-08-25T19:25:38.502Z,0.73
2018-08-25T19:28:05.616Z,1.00
2018-08-25T19:30:32.739Z,0.80
2018-08-25T19:32:59.847Z,0.87
2018-08-25T19:35:27.060Z,0.90
2018-08-25T19:37:54.237Z,0.90
2018-08-25T19:40:21.386Z,0.90
2018-08-25T19:42:48.561Z,0.73
2018-08-25T19:45:16.265Z,0.90
2018-08-25T19:47:43.366Z,1.00
2018-08-25T19:50:10.527Z,1.50
2018-08-25T19:52:37.691Z,1.10
2018-08-25T19:55:04.871Z,1.00
2018-08-25T19:57:31.977Z,1.07
2018-08-25T19:59:59.123Z,1.10
2018-08-25T20:02:26.247Z,1.10
2018-08-25T20:04:53.384Z,0.70
2018-08-25T20:07:20.579Z,0.83
2018-08-25T20:09:47.942Z,0.90
2018-08-25T20:12:15.159Z,0.80
2018-08-25T20:14:42.647Z,0.80
2018-08-25T20:17:09.830Z,1.00
2018-08-25T20:19:36.979Z,1.00
2018-08-25T20:22:04.512Z,1.30
2018-08-25T20:24:31.746Z,0.87
2018-08-25T20:26:58.873Z,1.13
2018-08-25T20:29:25.987Z,0.53
2018-08-25T20:31:53.210Z,1.00
2018-08-25T20:34:20.404Z,0.93
2018-08-25T20:36:47.598Z,1.10
2018-08-25T20:39:14.706Z,0.80
2018-08-25T20:41:41.820Z,1.27
2018-08-25T20:44:08.951Z,1.30
2018-08-25T20:46:36.103Z,1.13
2018-08-25T20:49:04.370Z,0.93
2018-08-25T20:51:31.703Z,1.30
2018-08-25T20:53:59.082Z,1.20
2018-08-25T20:56:26.240Z,1.23
2018-08-25T20:58:53.387Z,1.20
2018-08-25T21:01:20.551Z,0.90
2018-08-25T21:03:47.703Z,1.07
2018-08-25T21:06:14.810Z,1.70
2018-08-25T21:08:41.951Z,1.40
2018-08-25T21:11:09.139Z,1.77
2018-08-25T21:13:36.329Z,1.20
2018-08-25T21:16:03.581Z,1.20
2018-08-25T21:18:30.711Z,1.10
2018-08-25T21:20:57.831Z,1.10
2018-08-25T21:23:25.012Z,0.83
2018-08-25T21:25:52.222Z,1.17
2018-08-25T21:28:19.372Z,1.10
2018-08-25T21:30:46.567Z,1.30
2018-08-25T21:33:13.643Z,1.10
2018-08-25T21:35:40.744Z,1.47
2018-08-25T21:38:08.554Z,1.20
2018-08-25T21:40:35.911Z,1.30
2018-08-25T21:43:03.054Z,1.10
2018-08-25T21:45:30.180Z,1.10
2018-08-25T21:47:57.299Z,1.30
2018-08-25T21:50:24.431Z,1.10
2018-08-25T21:52:51.636Z,1.10
2018-08-25T21:55:18.845Z,1.10
2018-08-25T21:57:46.159Z,0.97
2018-08-25T22:00:13.370Z,1.03
2018-08-25T22:02:40.491Z,1.20
2018-08-25T22:05:07.607Z,1.30
2018-08-25T22:07:34.770Z,1.30
2018-08-25T22:10:01.917Z,1.40
2018-08-25T22:12:29.075Z,1.40
2018-08-25T22:14:56.304Z,0.97
2018-08-25T22:17:23.479Z,1.13
2018-08-25T22:19:50.657Z,1.20
2018-08-25T22:22:17.841Z,1.30
2018-08-25T22:24:44.995Z,1.10
2018-08-25T22:27:12.154Z,1.13
2018-08-25T22:29:39.260Z,0.93
2018-08-25T22:32:06.370Z,1.00
2018-08-25T22:34:33.638Z,1.20
2018-08-25T22:37:00.751Z,0.97
2018-08-25T22:39:27.878Z,0.90
2018-08-25T22:41:55.013Z,0.83
2018-08-25T22:44:22.170Z,1.03
2018-08-25T22:46:49.326Z,1.10
2018-08-25T22:49:16.486Z,1.23
2018-08-25T22:51:43.639Z,0.93
2018-08-25T22:54:10.767Z,1.00
2018-08-25T22:56:37.876Z,1.00
2018-08-25T22:59:04.993Z,1.33
2018-08-25T23:01:32.206Z,1.00
2018-08-25T23:03:59.274Z,1.33
2018-08-25T23:06:26.411Z,1.20
2018-08-25T23:08:53.641Z,1.37
2018-08-25T23:11:20.807Z,1.50
2018-08-25T23:13:48.076Z,1.10
2018-08-25T23:16:15.205Z,1.30
2018-08-25T23:18:42.410Z,0.70
2018-08-25T23:21:09.795Z,1.20
2018-08-25T23:23:36.978Z,0.90
2018-08-25T23:26:04.313Z,1.00
2018-08-25T23:28:31.466Z,1.07
2018-08-25T23:30:58.583Z,1.00
2018-08-25T23:33:25.719Z,1.00
2018-08-25T23:35:52.870Z,0.90
2018-08-25T23:38:20.079Z,1.20
2018-08-25T23:40:47.282Z,1.07
2018-08-25T23:43:14.426Z,1.10
2018-08-25T23:45:41.730Z,0.80
2018-08-25T23:48:09.035Z,1.10
2018-08-25T23:50:36.110Z,1.20
2018-08-25T23:53:03.399Z,1.10
2018-08-25T23:55:30.522Z,1.23
2018-08-25T23:57:57.623Z,1.00
